createdAt,value
2018-02-23T00:01:29.073Z,23.30
2018-02-23T00:07:48.599Z,24.70
2018-02-23T00:13:53.928Z,25.90
2018-02-23T00:19:59.029Z,22.50
2018-02-23T00:26:04.453Z,19.87
2018-02-23T00:32:09.394Z,23.80
2018-02-23T00:38:14.545Z,23.43
2018-02-23T00:44:21.762Z,28.27
2018-02-23T00:50:30.405Z,23.37
2018-02-23T00:56:37.898Z,20.70
2018-02-23T01:02:43.309Z,22.10
2018-02-23T01:08:49.557Z,24.80
2018-02-23T01:14:56.291Z,27.17
2018-02-23T01:21:02.544Z,19.47
2018-02-23T01:27:09.743Z,22.27
2018-02-23T01:33:21.482Z,27.87
2018-02-23T01:39:27.344Z,23.17
2018-02-23T01:45:32.890Z,22.10
2018-02-23T01:51:39.343Z,21.17
2018-02-23T01:57:44.574Z,27.57
2018-02-23T02:03:49.708Z,20.47
2018-02-23T02:09:55.903Z,19.43
2018-02-23T02:16:01.108Z,21.83
2018-02-23T02:22:06.281Z,21.37
2018-02-23T02:28:11.061Z,15.77
2018-02-23T02:34:15.807Z,16.70
2018-02-23T02:40:21.181Z,16.80
2018-02-23T02:46:26.538Z,14.27
2018-02-23T02:52:32.860Z,13.20
2018-02-23T02:58:39.381Z,9.73
2018-02-23T03:04:46.844Z,9.83
2018-02-23T03:10:56.670Z,18.90
2018-02-23T03:17:01.641Z,10.43
2018-02-23T03:23:07.344Z,8.90
2018-02-23T03:29:12.146Z,11.83
2018-02-23T03:35:16.850Z,15.13
2018-02-23T03:41:24.886Z,13.77
2018-02-23T03:47:32.400Z,10.77
2018-02-23T03:53:37.382Z,12.00
2018-02-23T03:59:42.252Z,11.50
2018-02-23T04:05:48.409Z,10.63
2018-02-23T04:11:53.579Z,8.90
2018-02-23T04:17:59.581Z,7.73
2018-02-23T04:24:04.478Z,11.07
2018-02-23T04:30:10.115Z,10.47
2018-02-23T04:36:16.201Z,10.37
2018-02-23T04:42:21.618Z,11.20
2018-02-23T04:48:26.583Z,12.23
2018-02-23T04:54:32.045Z,14.13
2018-02-23T05:00:37.840Z,18.47
2018-02-23T05:06:42.705Z,11.77
2018-02-23T05:12:48.110Z,13.20
2018-02-23T05:28:38.034Z,19.90
2018-02-23T05:34:43.136Z,14.50
2018-02-23T05:40:48.600Z,15.83
2018-02-23T05:46:55.018Z,14.87
2018-02-23T05:53:00.110Z,16.93
2018-02-23T05:59:05.130Z,21.10
2018-02-23T06:05:10.075Z,22.90
2018-02-23T06:11:15.161Z,20.53
2018-02-23T06:17:26.229Z,21.90
2018-02-23T06:23:31.400Z,23.03
2018-02-23T06:29:36.152Z,15.47
2018-02-23T06:35:44.145Z,17.50
2018-02-23T06:41:51.373Z,17.93
2018-02-23T06:47:57.005Z,16.80
2018-02-23T06:54:01.972Z,17.47
2018-02-23T07:00:07.330Z,19.40
2018-02-23T07:06:12.790Z,19.03
2018-02-23T07:12:17.509Z,21.60
2018-02-23T07:18:23.606Z,26.63
2018-02-23T07:24:28.759Z,15.80
2018-02-23T07:30:33.773Z,19.67
2018-02-23T07:36:39.088Z,21.33
2018-02-23T07:42:44.095Z,21.43
2018-02-23T07:48:49.052Z,20.30
2018-02-23T07:54:54.980Z,21.03
2018-02-23T08:00:59.689Z,23.67
2018-02-23T08:07:05.255Z,20.30
2018-02-23T08:13:09.983Z,17.60
2018-02-23T08:19:15.443Z,20.57
2018-02-23T08:25:20.914Z,21.93
2018-02-23T08:31:26.388Z,15.70
2018-02-23T08:37:32.259Z,18.60
2018-02-23T08:43:37.192Z,17.00
2018-02-23T08:49:43.154Z,18.07
2018-02-23T08:55:48.116Z,16.07
2018-02-23T09:01:54.518Z,17.63
2018-02-23T09:07:59.229Z,19.33
2018-02-23T09:14:04.514Z,14.03
2018-02-23T09:20:09.930Z,16.77
2018-02-23T09:26:15.449Z,15.23
2018-02-23T09:38:55.207Z,18.10
2018-02-23T09:44:59.767Z,15.77
2018-02-23T09:51:04.339Z,14.87
2018-02-23T09:57:08.902Z,13.40
2018-02-23T10:03:13.598Z,18.73
2018-02-23T10:09:18.409Z,15.00
2018-02-23T10:15:23.702Z,15.27
2018-02-23T10:21:28.315Z,16.63
2018-02-23T10:27:32.878Z,11.07
2018-02-23T10:33:37.647Z,14.90
2018-02-23T10:39:42.178Z,11.47
2018-02-23T10:45:47.557Z,16.13
2018-02-23T10:51:52.490Z,14.20
2018-02-23T10:57:57.927Z,13.83
2018-02-23T11:04:02.590Z,9.93
2018-02-23T11:10:07.089Z,11.27
2018-02-23T11:16:11.933Z,11.70
2018-02-23T11:22:16.585Z,10.07
2018-02-23T11:28:21.393Z,12.23
2018-02-23T11:34:26.123Z,11.37
2018-02-23T11:40:30.763Z,13.93
2018-02-23T11:46:40.471Z,12.43
2018-02-23T11:52:45.064Z,12.30
2018-02-23T11:58:50.146Z,12.83
2018-02-23T12:04:54.747Z,13.27
2018-02-23T12:10:59.386Z,11.87
2018-02-23T12:17:03.964Z,12.23
2018-02-23T12:23:09.320Z,12.90
2018-02-23T12:29:13.926Z,12.03
2018-02-23T12:35:18.554Z,13.60
2018-02-23T12:41:23.546Z,13.87
2018-02-23T12:47:28.170Z,15.07
2018-02-23T12:53:33.684Z,17.23
2018-02-23T12:59:38.259Z,15.77
2018-02-23T13:05:42.883Z,13.07
2018-02-23T13:11:47.644Z,15.50
2018-02-23T13:17:52.426Z,18.30
2018-02-23T13:23:57.781Z,12.00
2018-02-23T13:30:02.340Z,13.53
2018-02-23T13:36:07.757Z,11.20
2018-02-23T13:42:12.411Z,17.37
2018-02-23T13:48:18.717Z,11.10
2018-02-23T13:54:24.560Z,9.10
2018-02-23T14:00:29.808Z,11.63
2018-02-23T14:06:36.867Z,12.07
2018-02-23T14:12:44.752Z,10.50
2018-02-23T14:25:38.345Z,23.73
2018-02-23T14:31:43.143Z,11.60
2018-02-23T14:37:50.746Z,13.80
2018-02-23T14:44:01.259Z,12.57
2018-02-23T14:50:24.608Z,13.80
2018-02-23T14:56:31.611Z,13.13
2018-02-23T15:02:36.710Z,10.97
2018-02-23T15:08:42.420Z,13.00
2018-02-23T15:14:48.993Z,17.23
2018-02-23T15:20:55.772Z,14.93
2018-02-23T15:27:01.255Z,15.30
2018-02-23T15:33:05.865Z,10.13
2018-02-23T15:39:10.743Z,15.43
2018-02-23T15:45:16.614Z,14.10
2018-02-23T15:51:25.537Z,11.03
2018-02-23T15:57:31.575Z,9.70
2018-02-23T16:03:36.227Z,16.23
2018-02-23T16:09:42.115Z,10.80
2018-02-23T16:15:48.290Z,11.10
2018-02-23T16:21:54.326Z,13.03
2018-02-23T16:27:59.443Z,12.97
2018-02-23T16:34:04.158Z,13.50
2018-02-23T16:40:09.052Z,12.83
2018-02-23T16:46:14.244Z,17.10
2018-02-23T16:52:19.988Z,17.07
2018-02-23T16:58:24.758Z,18.80
2018-02-23T17:04:29.532Z,15.33
2018-02-23T17:10:34.144Z,19.33
2018-02-23T17:16:40.117Z,14.77
2018-02-23T17:22:44.870Z,21.20
2018-02-23T17:28:52.326Z,22.17
2018-02-23T17:34:57.171Z,19.63
2018-02-23T17:41:02.450Z,21.53
2018-02-23T17:47:07.217Z,26.27
2018-02-23T17:53:12.289Z,24.07
2018-02-23T17:59:17.094Z,23.47
2018-02-23T18:05:26.002Z,26.13
2018-02-23T18:11:30.628Z,30.53
2018-02-23T18:17:35.419Z,23.97
2018-02-23T18:23:40.260Z,47.33
2018-02-23T18:29:46.153Z,27.67
2018-02-23T18:35:52.513Z,34.30
2018-02-23T18:41:57.835Z,28.20
2018-02-23T18:48:04.847Z,29.50
2018-02-23T18:54:09.646Z,32.40
2018-02-23T19:00:15.195Z,36.10
2018-02-23T19:06:20.106Z,38.20
2018-02-23T19:12:24.794Z,37.73
2018-02-23T19:18:30.360Z,36.10
2018-02-23T19:24:35.032Z,36.27
2018-02-23T19:30:39.735Z,39.87
2018-02-23T19:36:44.335Z,38.33
2018-02-23T19:42:50.947Z,37.23
2018-02-23T19:48:56.858Z,30.53
2018-02-23T19:55:01.532Z,34.60
2018-02-23T20:01:06.516Z,36.20
2018-02-23T20:07:11.397Z,36.33
2018-02-23T20:13:16.862Z,34.83
2018-02-23T20:19:23.347Z,51.17
2018-02-23T20:25:28.112Z,30.60
2018-02-23T20:31:32.808Z,40.07
2018-02-23T20:37:39.074Z,32.13
2018-02-23T20:43:44.713Z,34.73
2018-02-23T20:49:50.773Z,34.90
2018-02-23T20:55:56.440Z,38.37
2018-02-23T21:02:01.477Z,35.37
2018-02-23T21:08:06.268Z,36.67
2018-02-23T21:14:11.200Z,38.80
2018-02-23T21:20:15.954Z,36.60
2018-02-23T21:26:20.939Z,28.67
2018-02-23T21:32:26.088Z,33.67
2018-02-23T21:38:30.736Z,31.23
2018-02-23T21:44:48.151Z,29.80
2018-02-23T21:50:53.161Z,23.40
2018-02-23T21:56:58.742Z,25.03
2018-02-23T22:03:03.428Z,26.60
2018-02-23T22:09:09.723Z,29.53
2018-02-23T22:15:14.461Z,30.13
2018-02-23T22:21:20.023Z,23.53
2018-02-23T22:27:25.386Z,22.07
2018-02-23T22:33:30.081Z,27.10
2018-02-23T22:39:34.806Z,25.63
2018-02-23T22:45:40.200Z,31.20
2018-02-23T22:51:46.024Z,28.00
2018-02-23T22:57:51.568Z,28.00
2018-02-23T23:03:56.474Z,29.63
2018-02-23T23:10:01.097Z,42.47
2018-02-23T23:16:07.236Z,32.07
2018-02-23T23:22:12.096Z,33.47
2018-02-23T23:28:17.051Z,24.23
2018-02-23T23:34:23.488Z,29.23
2018-02-23T23:40:28.869Z,29.40
2018-02-23T23:46:33.588Z,27.30
2018-02-23T23:52:38.365Z,31.37
2018-02-23T23:58:44.852Z,32.50
